sensor_id;sensor_type;location;lat;lon;timestamp;pressure;altitude;pressure_sealevel;temperature;humidity
61908;BME280;47864;52.526;19.672;2023-04-20T00:01:18;101269.09;;;11.71;100.00
61908;BME280;47864;52.526;19.672;2023-04-20T00:03:19;101267.88;;;11.85;100.00
61908;BME280;47864;52.526;19.672;2023-04-20T00:05:21;101270.53;;;11.75;100.00
61908;BME280;47864;52.526;19.672;2023-04-20T00:07:23;101284.09;;;11.82;100.00
61908;BME280;47864;52.526;19.672;2023-04-20T00:09:25;101270.66;;;11.74;100.00
61908;BME280;47864;52.526;19.672;2023-04-20T00:11:27;101275.97;;;11.84;100.00
61908;BME280;47864;52.526;19.672;2023-04-20T00:13:28;101286.63;;;11.84;100.00
61908;BME280;47864;52.526;19.672;2023-04-20T00:15:30;101278.50;;;11.75;100.00
61908;BME280;47864;52.526;19.672;2023-04-20T00:17:31;101285.66;;;11.85;100.00
61908;BME280;47864;52.526;19.672;2023-04-20T00:19:33;101290.25;;;11.82;100.00
61908;BME280;47864;52.526;19.672;2023-04-20T00:21:34;101265.94;;;11.77;100.00
61908;BME280;47864;52.526;19.672;2023-04-20T00:23:36;101284.53;;;11.77;100.00
61908;BME280;47864;52.526;19.672;2023-04-20T00:25:37;101275.16;;;11.83;100.00
61908;BME280;47864;52.526;19.672;2023-04-20T00:27:39;101283.25;;;11.91;100.00
61908;BME280;47864;52.526;19.672;2023-04-20T00:29:40;101278.06;;;11.90;100.00
61908;BME280;47864;52.526;19.672;2023-04-20T00:31:42;101279.63;;;11.82;100.00
61908;BME280;47864;52.526;19.672;2023-04-20T00:33:43;101265.09;;;11.77;100.00
61908;BME280;47864;52.526;19.672;2023-04-20T00:35:44;101278.06;;;11.90;100.00
61908;BME280;47864;52.526;19.672;2023-04-20T00:37:46;101279.34;;;11.86;100.00
61908;BME280;47864;52.526;19.672;2023-04-20T00:39:47;101279.34;;;11.86;100.00
61908;BME280;47864;52.526;19.672;2023-04-20T00:41:49;101277.25;;;11.60;100.00
61908;BME280;47864;52.526;19.672;2023-04-20T00:43:51;101267.16;;;11.54;100.00
61908;BME280;47864;52.526;19.672;2023-04-20T00:45:53;101284.66;;;11.76;100.00
61908;BME280;47864;52.526;19.672;2023-04-20T00:47:55;101286.06;;;11.80;100.00
61908;BME280;47864;52.526;19.672;2023-04-20T00:49:56;101269.69;;;11.65;100.00
61908;BME280;47864;52.526;19.672;2023-04-20T00:51:58;101279.59;;;11.54;100.00
61908;BME280;47864;52.526;19.672;2023-04-20T00:54:00;101280.16;;;11.67;100.00
61908;BME280;47864;52.526;19.672;2023-04-20T00:56:03;101272.06;;;11.49;100.00
61908;BME280;47864;52.526;19.672;2023-04-20T00:58:05;101271.09;;;11.60;100.00
61908;BME280;47864;52.526;19.672;2023-04-20T01:00:07;101247.03;;;11.42;100.00
61908;BME280;47864;52.526;19.672;2023-04-20T01:02:09;101275.00;;;11.56;100.00
61908;BME280;47864;52.526;19.672;2023-04-20T01:04:10;101258.06;;;11.37;100.00
61908;BME280;47864;52.526;19.672;2023-04-20T01:06:13;101267.31;;;11.33;100.00
61908;BME280;47864;52.526;19.672;2023-04-20T01:08:15;101261.16;;;11.33;100.00
61908;BME280;47864;52.526;19.672;2023-04-20T01:10:16;101262.69;;;11.35;100.00
61908;BME280;47864;52.526;19.672;2023-04-20T01:12:18;101258.50;;;11.23;100.00
61908;BME280;47864;52.526;19.672;2023-04-20T01:14:19;101261.72;;;11.17;100.00
61908;BME280;47864;52.526;19.672;2023-04-20T01:16:21;101255.81;;;11.14;100.00
61908;BME280;47864;52.526;19.672;2023-04-20T01:18:22;101258.31;;;11.05;100.00
61908;BME280;47864;52.526;19.672;2023-04-20T01:20:24;101245.88;;;10.96;100.00
61908;BME280;47864;52.526;19.672;2023-04-20T01:22:25;101260.84;;;11.07;100.00
61908;BME280;47864;52.526;19.672;2023-04-20T01:24:27;101258.31;;;10.96;100.00
61908;BME280;47864;52.526;19.672;2023-04-20T01:26:28;101257.78;;;11.02;100.00
61908;BME280;47864;52.526;19.672;2023-04-20T01:28:30;101255.94;;;10.93;100.00
61908;BME280;47864;52.526;19.672;2023-04-20T01:30:33;101253.53;;;10.80;100.00
61908;BME280;47864;52.526;19.672;2023-04-20T01:32:34;101228.47;;;10.63;100.00
61908;BME280;47864;52.526;19.672;2023-04-20T01:34:36;101246.53;;;10.70;100.00
61908;BME280;47864;52.526;19.672;2023-04-20T01:36:38;101236.47;;;10.73;100.00
61908;BME280;47864;52.526;19.672;2023-04-20T01:38:39;101248.81;;;10.84;100.00
61908;BME280;47864;52.526;19.672;2023-04-20T01:40:41;101261.09;;;10.85;100.00
61908;BME280;47864;52.526;19.672;2023-04-20T01:42:42;101238.84;;;10.66;100.00
61908;BME280;47864;52.526;19.672;2023-04-20T01:44:44;101245.69;;;10.69;100.00
61908;BME280;47864;52.526;19.672;2023-04-20T01:46:45;101256.53;;;10.56;100.00
61908;BME280;47864;52.526;19.672;2023-04-20T01:48:47;101260.97;;;10.46;100.00
61908;BME280;47864;52.526;19.672;2023-04-20T01:50:51;101235.25;;;10.37;100.00
61908;BME280;47864;52.526;19.672;2023-04-20T01:52:53;101251.34;;;10.45;100.00
61908;BME280;47864;52.526;19.672;2023-04-20T01:54:54;101241.13;;;10.41;100.00
61908;BME280;47864;52.526;19.672;2023-04-20T01:56:56;101232.91;;;10.44;100.00
61908;BME280;47864;52.526;19.672;2023-04-20T01:58:57;101259.03;;;10.48;100.00
61908;BME280;47864;52.526;19.672;2023-04-20T02:01:00;101261.53;;;10.50;100.00
61908;BME280;47864;52.526;19.672;2023-04-20T02:03:02;101255.13;;;10.52;100.00
61908;BME280;47864;52.526;19.672;2023-04-20T02:05:04;101262.00;;;10.64;100.00
61908;BME280;47864;52.526;19.672;2023-04-20T02:07:05;101261.31;;;10.72;100.00
61908;BME280;47864;52.526;19.672;2023-04-20T02:09:07;101263.72;;;10.75;100.00
61908;BME280;47864;52.526;19.672;2023-04-20T02:11:08;101263.84;;;10.74;100.00
61908;BME280;47864;52.526;19.672;2023-04-20T02:13:10;101239.72;;;10.46;100.00
61908;BME280;47864;52.526;19.672;2023-04-20T02:15:11;101267.66;;;10.41;100.00
61908;BME280;47864;52.526;19.672;2023-04-20T02:17:13;101251.47;;;10.44;100.00
61908;BME280;47864;52.526;19.672;2023-04-20T02:19:14;101276.41;;;10.62;100.00
61908;BME280;47864;52.526;19.672;2023-04-20T02:21:17;101275.94;;;10.57;100.00
61908;BME280;47864;52.526;19.672;2023-04-20T02:23:19;101245.94;;;10.05;100.00
61908;BME280;47864;52.526;19.672;2023-04-20T02:25:20;101272.91;;;10.31;100.00
61908;BME280;47864;52.526;19.672;2023-04-20T02:27:22;101276.13;;;10.14;100.00
61908;BME280;47864;52.526;19.672;2023-04-20T02:29:24;101261.34;;;10.11;100.00
61908;BME280;47864;52.526;19.672;2023-04-20T02:31:25;101266.56;;;10.22;100.00
61908;BME280;47864;52.526;19.672;2023-04-20T02:33:27;101231.16;;;10.03;100.00
61908;BME280;47864;52.526;19.672;2023-04-20T02:35:28;101267.34;;;10.13;100.00
61908;BME280;47864;52.526;19.672;2023-04-20T02:37:30;101248.75;;;10.04;100.00
61908;BME280;47864;52.526;19.672;2023-04-20T02:39:31;101272.38;;;10.16;100.00
61908;BME280;47864;52.526;19.672;2023-04-20T02:41:33;101275.78;;;10.18;100.00
61908;BME280;47864;52.526;19.672;2023-04-20T02:43:34;101230.25;;;9.92;100.00
61908;BME280;47864;52.526;19.672;2023-04-20T02:45:36;101275.97;;;10.26;100.00
61908;BME280;47864;52.526;19.672;2023-04-20T02:47:37;101284.47;;;10.30;100.00
61908;BME280;47864;52.526;19.672;2023-04-20T02:49:39;101259.88;;;10.18;100.00
61908;BME280;47864;52.526;19.672;2023-04-20T02:51:40;101256.81;;;10.02;100.00
61908;BME280;47864;52.526;19.672;2023-04-20T02:53:42;101271.75;;;10.24;100.00
61908;BME280;47864;52.526;19.672;2023-04-20T02:55:43;101287.41;;;10.27;100.00
61908;BME280;47864;52.526;19.672;2023-04-20T02:57:45;101278.75;;;10.25;100.00
61908;BME280;47864;52.526;19.672;2023-04-20T02:59:46;101284.16;;;10.23;100.00
61908;BME280;47864;52.526;19.672;2023-04-20T03:01:48;101264.00;;;10.11;100.00
61908;BME280;47864;52.526;19.672;2023-04-20T03:03:49;101284.56;;;10.19;100.00
61908;BME280;47864;52.526;19.672;2023-04-20T03:05:51;101273.13;;;10.18;100.00
61908;BME280;47864;52.526;19.672;2023-04-20T03:07:52;101281.31;;;10.15;100.00
61908;BME280;47864;52.526;19.672;2023-04-20T03:09:54;101277.81;;;10.15;100.00
61908;BME280;47864;52.526;19.672;2023-04-20T03:11:55;101278.34;;;10.09;100.00
61908;BME280;47864;52.526;19.672;2023-04-20T03:13:57;101279.44;;;10.06;100.00
61908;BME280;47864;52.526;19.672;2023-04-20T03:15:58;101289.34;;;10.04;100.00
61908;BME280;47864;52.526;19.672;2023-04-20T03:18:00;101264.66;;;9.83;100.00
61908;BME280;47864;52.526;19.672;2023-04-20T03:20:02;101283.53;;;9.89;100.00
61908;BME280;47864;52.526;19.672;2023-04-20T03:22:03;101293.63;;;9.96;100.00
61908;BME280;47864;52.526;19.672;2023-04-20T03:24:05;101278.22;;;9.69;100.00
61908;BME280;47864;52.526;19.672;2023-04-20T03:26:06;101294.84;;;9.91;100.00
61908;BME280;47864;52.526;19.672;2023-04-20T03:28:08;101294.97;;;9.90;100.00
61908;BME280;47864;52.526;19.672;2023-04-20T03:30:10;101300.38;;;9.88;100.00
61908;BME280;47864;52.526;19.672;2023-04-20T03:32:11;101293.75;;;9.94;100.00
61908;BME280;47864;52.526;19.672;2023-04-20T03:34:13;101289.34;;;9.83;100.00
61908;BME280;47864;52.526;19.672;2023-04-20T03:36:15;101297.03;;;9.86;100.00
61908;BME280;47864;52.526;19.672;2023-04-20T03:38:16;101303.63;;;9.92;100.00
61908;BME280;47864;52.526;19.672;2023-04-20T03:40:18;101253.47;;;9.59;100.00
61908;BME280;47864;52.526;19.672;2023-04-20T03:42:19;101303.22;;;9.97;100.00
61908;BME280;47864;52.526;19.672;2023-04-20T03:44:21;101302.66;;;9.93;100.00
61908;BME280;47864;52.526;19.672;2023-04-20T03:46:22;101304.59;;;10.12;100.00
61908;BME280;47864;52.526;19.672;2023-04-20T03:48:24;101306.28;;;10.13;100.00
61908;BME280;47864;52.526;19.672;2023-04-20T03:50:26;101294.13;;;9.89;100.00
61908;BME280;47864;52.526;19.672;2023-04-20T03:52:27;101308.56;;;10.17;100.00
61908;BME280;47864;52.526;19.672;2023-04-20T03:54:29;101311.66;;;10.22;100.00
61908;BME280;47864;52.526;19.672;2023-04-20T03:56:30;101271.19;;;10.00;100.00
61908;BME280;47864;52.526;19.672;2023-04-20T03:58:32;101290.72;;;10.19;100.00
61908;BME280;47864;52.526;19.672;2023-04-20T04:00:33;101316.88;;;10.34;100.00
61908;BME280;47864;52.526;19.672;2023-04-20T04:02:35;101323.75;;;10.36;100.00
61908;BME280;47864;52.526;19.672;2023-04-20T04:04:39;101316.53;;;10.48;100.00
61908;BME280;47864;52.526;19.672;2023-04-20T04:06:42;101299.16;;;10.34;100.00
61908;BME280;47864;52.526;19.672;2023-04-20T04:08:43;101308.41;;;10.40;100.00
61908;BME280;47864;52.526;19.672;2023-04-20T04:10:45;101317.66;;;10.24;100.00
61908;BME280;47864;52.526;19.672;2023-04-20T04:12:46;101301.75;;;10.04;100.00
61908;BME280;47864;52.526;19.672;2023-04-20T04:14:48;101309.91;;;10.33;100.00
61908;BME280;47864;52.526;19.672;2023-04-20T04:16:49;101326.88;;;10.51;100.00
61908;BME280;47864;52.526;19.672;2023-04-20T04:18:51;101317.59;;;10.66;100.00
61908;BME280;47864;52.526;19.672;2023-04-20T04:20:52;101324.50;;;10.78;100.00
61908;BME280;47864;52.526;19.672;2023-04-20T04:22:53;101317.22;;;10.71;100.00
61908;BME280;47864;52.526;19.672;2023-04-20T04:24:55;101314.91;;;10.56;100.00
61908;BME280;47864;52.526;19.672;2023-04-20T04:26:56;101324.88;;;10.74;100.00
61908;BME280;47864;52.526;19.672;2023-04-20T04:28:58;101325.59;;;10.76;100.00
61908;BME280;47864;52.526;19.672;2023-04-20T04:30:59;101323.94;;;10.84;100.00
61908;BME280;47864;52.526;19.672;2023-04-20T04:33:01;101328.84;;;10.89;100.00
61908;BME280;47864;52.526;19.672;2023-04-20T04:35:03;101319.91;;;10.90;100.00
61908;BME280;47864;52.526;19.672;2023-04-20T04:37:04;101325.00;;;11.02;100.00
61908;BME280;47864;52.526;19.672;2023-04-20T04:39:06;101323.72;;;11.06;100.00
61908;BME280;47864;52.526;19.672;2023-04-20T04:41:07;101329.06;;;11.16;100.00
61908;BME280;47864;52.526;19.672;2023-04-20T04:43:09;101328.81;;;11.19;100.00
61908;BME280;47864;52.526;19.672;2023-04-20T04:45:10;101331.91;;;11.34;100.00
61908;BME280;47864;52.526;19.672;2023-04-20T04:47:12;101331.31;;;11.30;100.00
61908;BME280;47864;52.526;19.672;2023-04-20T04:49:13;101322.84;;;10.96;100.00
61908;BME280;47864;52.526;19.672;2023-04-20T04:51:15;101326.19;;;10.89;100.00
61908;BME280;47864;52.526;19.672;2023-04-20T04:53:17;101336.59;;;11.01;100.00
61908;BME280;47864;52.526;19.672;2023-04-20T04:55:18;101334.50;;;11.15;100.00
61908;BME280;47864;52.526;19.672;2023-04-20T04:57:20;101347.06;;;11.03;100.00
61908;BME280;47864;52.526;19.672;2023-04-20T04:59:21;101356.47;;;11.17;100.00
61908;BME280;47864;52.526;19.672;2023-04-20T05:01:23;101339.72;;;11.35;100.00
61908;BME280;47864;52.526;19.672;2023-04-20T05:03:24;101341.72;;;11.53;100.00
61908;BME280;47864;52.526;19.672;2023-04-20T05:05:26;101332.06;;;11.90;100.00
61908;BME280;47864;52.526;19.672;2023-04-20T05:07:28;101323.16;;;13.02;100.00
61908;BME280;47864;52.526;19.672;2023-04-20T05:09:29;101338.03;;;13.50;100.00
61908;BME280;47864;52.526;19.672;2023-04-20T05:11:31;101329.50;;;13.64;100.00
61908;BME280;47864;52.526;19.672;2023-04-20T05:13:32;101322.13;;;13.40;100.00
61908;BME280;47864;52.526;19.672;2023-04-20T05:15:34;101329.03;;;13.51;100.00
61908;BME280;47864;52.526;19.672;2023-04-20T05:17:35;101320.28;;;13.76;100.00
61908;BME280;47864;52.526;19.672;2023-04-20T05:19:37;101349.56;;;14.12;100.00
61908;BME280;47864;52.526;19.672;2023-04-20T05:21:38;101349.53;;;15.23;100.00
61908;BME280;47864;52.526;19.672;2023-04-20T05:23:40;101347.63;;;15.74;88.12
61908;BME280;47864;52.526;19.672;2023-04-20T05:25:41;101354.47;;;16.33;87.53
61908;BME280;47864;52.526;19.672;2023-04-20T05:27:43;101354.25;;;16.59;82.02
61908;BME280;47864;52.526;19.672;2023-04-20T05:29:44;101358.34;;;16.30;82.30
61908;BME280;47864;52.526;19.672;2023-04-20T05:31:46;101347.25;;;16.66;79.39
61908;BME280;47864;52.526;19.672;2023-04-20T05:33:47;101361.25;;;17.23;76.22
61908;BME280;47864;52.526;19.672;2023-04-20T05:35:49;101372.78;;;17.32;76.40
61908;BME280;47864;52.526;19.672;2023-04-20T05:37:50;101363.53;;;17.65;71.54
61908;BME280;47864;52.526;19.672;2023-04-20T05:39:52;101368.56;;;16.98;nan
61908;BME280;47864;52.526;19.672;2023-04-20T05:41:54;101364.38;;;17.04;73.26
61908;BME280;47864;52.526;19.672;2023-04-20T05:43:55;101351.44;;;16.52;74.02
61908;BME280;47864;52.526;19.672;2023-04-20T05:45:57;101364.03;;;15.71;76.20
61908;BME280;47864;52.526;19.672;2023-04-20T05:47:58;101370.06;;;15.73;76.13
61908;BME280;47864;52.526;19.672;2023-04-20T05:50:04;101348.06;;;15.37;77.27
61908;BME280;47864;52.526;19.672;2023-04-20T05:52:06;101353.44;;;15.45;78.02
61908;BME280;47864;52.526;19.672;2023-04-20T05:54:07;101372.22;;;15.61;77.73
61908;BME280;47864;52.526;19.672;2023-04-20T05:56:09;101370.91;;;15.97;76.67
61908;BME280;47864;52.526;19.672;2023-04-20T05:58:10;101373.09;;;16.02;76.55
61908;BME280;47864;52.526;19.672;2023-04-20T06:00:14;101366.88;;;16.10;73.91
61908;BME280;47864;52.526;19.672;2023-04-20T06:02:16;101351.16;;;15.98;74.29
61908;BME280;47864;52.526;19.672;2023-04-20T06:04:17;101379.94;;;16.13;73.18
61908;BME280;47864;52.526;19.672;2023-04-20T06:06:19;101359.38;;;16.05;73.70
61908;BME280;47864;52.526;19.672;2023-04-20T06:08:21;101364.53;;;15.74;73.18
61908;BME280;47864;52.526;19.672;2023-04-20T06:10:22;101386.63;;;15.26;74.95
61908;BME280;47864;52.526;19.672;2023-04-20T06:12:24;101379.03;;;15.05;75.69
61908;BME280;47864;52.526;19.672;2023-04-20T06:14:27;101379.84;;;15.40;75.45
61908;BME280;47864;52.526;19.672;2023-04-20T06:16:28;101392.81;;;15.85;76.17
61908;BME280;47864;52.526;19.672;2023-04-20T06:18:30;101395.00;;;15.89;75.78
61908;BME280;47864;52.526;19.672;2023-04-20T06:20:31;101387.63;;;16.24;73.63
61908;BME280;47864;52.526;19.672;2023-04-20T06:22:32;101385.72;;;16.81;70.47
61908;BME280;47864;52.526;19.672;2023-04-20T06:24:34;101360.38;;;18.07;69.73
61908;BME280;47864;52.526;19.672;2023-04-20T06:26:36;101395.13;;;19.20;64.70
61908;BME280;47864;52.526;19.672;2023-04-20T06:28:37;101403.53;;;19.61;60.25
61908;BME280;47864;52.526;19.672;2023-04-20T06:30:39;101399.78;;;20.40;60.32
61908;BME280;47864;52.526;19.672;2023-04-20T06:32:40;101411.03;;;20.78;55.34
61908;BME280;47864;52.526;19.672;2023-04-20T06:34:42;101406.75;;;19.71;56.57
61908;BME280;47864;52.526;19.672;2023-04-20T06:36:44;101406.81;;;19.77;59.72
61908;BME280;47864;52.526;19.672;2023-04-20T06:38:45;101377.13;;;19.71;58.34
61908;BME280;47864;52.526;19.672;2023-04-20T06:40:46;101405.09;;;19.91;56.65
61908;BME280;47864;52.526;19.672;2023-04-20T06:42:48;101410.19;;;20.01;55.22
61908;BME280;47864;52.526;19.672;2023-04-20T06:44:49;101415.69;;;20.14;54.37
61908;BME280;47864;52.526;19.672;2023-04-20T06:46:51;101409.81;;;20.10;54.74
61908;BME280;47864;52.526;19.672;2023-04-20T06:48:52;101412.41;;;19.76;52.97
61908;BME280;47864;52.526;19.672;2023-04-20T06:50:54;101398.06;;;19.90;55.09
61908;BME280;47864;52.526;19.672;2023-04-20T06:52:55;101366.09;;;19.87;53.88
61908;BME280;47864;52.526;19.672;2023-04-20T06:54:58;101411.34;;;19.77;55.08
61908;BME280;47864;52.526;19.672;2023-04-20T06:56:59;101406.38;;;19.74;53.49
61908;BME280;47864;52.526;19.672;2023-04-20T06:59:01;101414.09;;;19.62;54.29
61908;BME280;47864;52.526;19.672;2023-04-20T07:01:03;101418.63;;;20.19;53.28
61908;BME280;47864;52.526;19.672;2023-04-20T07:03:04;101417.34;;;20.15;55.03
61908;BME280;47864;52.526;19.672;2023-04-20T07:05:06;101370.84;;;19.64;54.23
61908;BME280;47864;52.526;19.672;2023-04-20T07:07:08;101415.44;;;19.22;56.44
61908;BME280;47864;52.526;19.672;2023-04-20T07:09:09;101418.16;;;19.52;56.21
61908;BME280;47864;52.526;19.672;2023-04-20T07:11:11;101405.97;;;19.41;56.33
61908;BME280;47864;52.526;19.672;2023-04-20T07:13:12;101419.38;;;18.76;57.65
61908;BME280;47864;52.526;19.672;2023-04-20T07:15:14;101401.31;;;18.09;59.75
61908;BME280;47864;52.526;19.672;2023-04-20T07:17:15;101412.13;;;18.76;59.09
61908;BME280;47864;52.526;19.672;2023-04-20T07:19:17;101404.88;;;18.24;59.88
61908;BME280;47864;52.526;19.672;2023-04-20T07:21:19;101412.31;;;18.89;59.56
61908;BME280;47864;52.526;19.672;2023-04-20T07:23:20;101421.09;;;19.57;56.72
61908;BME280;47864;52.526;19.672;2023-04-20T07:25:22;101423.91;;;19.70;56.85
61908;BME280;47864;52.526;19.672;2023-04-20T07:27:23;101410.19;;;18.99;57.54
61908;BME280;47864;52.526;19.672;2023-04-20T07:29:25;101426.69;;;19.26;57.77
61908;BME280;47864;52.526;19.672;2023-04-20T07:31:26;101410.97;;;18.56;58.08
61908;BME280;47864;52.526;19.672;2023-04-20T07:33:28;101389.63;;;18.54;59.36
61908;BME280;47864;52.526;19.672;2023-04-20T07:35:30;101393.25;;;18.47;60.91
61908;BME280;47864;52.526;19.672;2023-04-20T07:37:32;101413.97;;;19.49;58.23
61908;BME280;47864;52.526;19.672;2023-04-20T07:39:34;101421.19;;;19.19;59.01
61908;BME280;47864;52.526;19.672;2023-04-20T07:41:35;101424.56;;;18.92;59.50
61908;BME280;47864;52.526;19.672;2023-04-20T07:43:37;101418.16;;;19.94;56.19
61908;BME280;47864;52.526;19.672;2023-04-20T07:45:38;101416.72;;;19.92;56.74
61908;BME280;47864;52.526;19.672;2023-04-20T07:47:40;101417.72;;;20.12;55.28
61908;BME280;47864;52.526;19.672;2023-04-20T07:49:42;101426.91;;;20.39;57.27
61908;BME280;47864;52.526;19.672;2023-04-20T07:51:44;101421.56;;;20.73;55.77
61908;BME280;47864;52.526;19.672;2023-04-20T07:53:45;101417.22;;;21.07;54.43
61908;BME280;47864;52.526;19.672;2023-04-20T07:55:47;101426.03;;;20.60;53.54
61908;BME280;47864;52.526;19.672;2023-04-20T07:57:51;101423.88;;;19.19;55.36
61908;BME280;47864;52.526;19.672;2023-04-20T07:59:52;101432.13;;;19.62;55.88
61908;BME280;47864;52.526;19.672;2023-04-20T08:02:00;101421.31;;;19.98;55.27
61908;BME280;47864;52.526;19.672;2023-04-20T08:04:03;101428.47;;;19.69;56.43
61908;BME280;47864;52.526;19.672;2023-04-20T08:06:05;101409.25;;;19.94;57.54
61908;BME280;47864;52.526;19.672;2023-04-20T08:08:06;101425.56;;;19.35;58.43
61908;BME280;47864;52.526;19.672;2023-04-20T08:10:08;101405.34;;;19.75;57.61
61908;BME280;47864;52.526;19.672;2023-04-20T08:12:10;101427.59;;;20.26;57.64
61908;BME280;47864;52.526;19.672;2023-04-20T08:14:13;101420.72;;;20.45;55.63
61908;BME280;47864;52.526;19.672;2023-04-20T08:16:14;101424.78;;;20.13;56.25
61908;BME280;47864;52.526;19.672;2023-04-20T08:18:16;101420.94;;;20.22;55.63
61908;BME280;47864;52.526;19.672;2023-04-20T08:20:18;101416.50;;;18.77;59.09
61908;BME280;47864;52.526;19.672;2023-04-20T08:22:20;101429.38;;;18.82;59.75
61908;BME280;47864;52.526;19.672;2023-04-20T08:24:21;101406.28;;;18.58;58.32
61908;BME280;47864;52.526;19.672;2023-04-20T08:26:23;101433.09;;;18.20;61.62
61908;BME280;47864;52.526;19.672;2023-04-20T08:28:24;101438.00;;;17.94;64.26
61908;BME280;47864;52.526;19.672;2023-04-20T08:30:34;101439.97;;;18.23;61.13
61908;BME280;47864;52.526;19.672;2023-04-20T08:32:36;101435.13;;;18.56;60.36
61908;BME280;47864;52.526;19.672;2023-04-20T08:34:38;101423.94;;;18.52;60.72
61908;BME280;47864;52.526;19.672;2023-04-20T08:36:39;101401.63;;;18.29;60.48
61908;BME280;47864;52.526;19.672;2023-04-20T08:38:41;101435.56;;;17.84;61.74
61908;BME280;47864;52.526;19.672;2023-04-20T08:40:43;101431.16;;;18.52;62.93
61908;BME280;47864;52.526;19.672;2023-04-20T08:42:45;101429.91;;;18.62;61.29
61908;BME280;47864;52.526;19.672;2023-04-20T08:44:48;101434.75;;;19.11;59.40
61908;BME280;47864;52.526;19.672;2023-04-20T08:46:50;101435.44;;;19.64;60.79
61908;BME280;47864;52.526;19.672;2023-04-20T08:48:52;101429.41;;;19.98;59.23
61908;BME280;47864;52.526;19.672;2023-04-20T08:50:54;101437.41;;;20.12;55.53
61908;BME280;47864;52.526;19.672;2023-04-20T08:52:56;101426.00;;;19.89;56.56
61908;BME280;47864;52.526;19.672;2023-04-20T08:54:57;101420.06;;;19.43;57.44
61908;BME280;47864;52.526;19.672;2023-04-20T08:56:59;101419.97;;;19.36;55.96
61908;BME280;47864;52.526;19.672;2023-04-20T08:59:01;101434.13;;;19.74;55.56
61908;BME280;47864;52.526;19.672;2023-04-20T09:01:03;101428.94;;;19.94;55.88
61908;BME280;47864;52.526;19.672;2023-04-20T09:03:04;101419.66;;;19.61;56.19
61908;BME280;47864;52.526;19.672;2023-04-20T09:05:07;101434.88;;;19.68;55.39
61908;BME280;47864;52.526;19.672;2023-04-20T09:07:19;101438.56;;;19.82;56.18
61908;BME280;47864;52.526;19.672;2023-04-20T09:09:22;101428.38;;;19.99;54.66
61908;BME280;47864;52.526;19.672;2023-04-20T09:11:27;101437.84;;;19.73;54.08
61908;BME280;47864;52.526;19.672;2023-04-20T09:13:28;101431.41;;;18.94;55.66
61908;BME280;47864;52.526;19.672;2023-04-20T09:15:30;101430.56;;;18.65;58.77
61908;BME280;47864;52.526;19.672;2023-04-20T09:17:34;101427.06;;;18.93;57.02
61908;BME280;47864;52.526;19.672;2023-04-20T09:19:35;101427.41;;;19.20;56.40
61908;BME280;47864;52.526;19.672;2023-04-20T09:21:50;101422.88;;;19.20;56.54
61908;BME280;47864;52.526;19.672;2023-04-20T09:24:02;101436.66;;;19.47;57.07
61908;BME280;47864;52.526;19.672;2023-04-20T09:26:04;101424.81;;;19.77;56.95
61908;BME280;47864;52.526;19.672;2023-04-20T09:28:06;101436.22;;;19.58;54.83
61908;BME280;47864;52.526;19.672;2023-04-20T09:30:08;101433.22;;;19.67;57.01
61908;BME280;47864;52.526;19.672;2023-04-20T09:32:23;101439.66;;;19.88;56.63
61908;BME280;47864;52.526;19.672;2023-04-20T09:34:25;101437.25;;;19.93;54.91
61908;BME280;47864;52.526;19.672;2023-04-20T09:36:44;101427.03;;;19.88;54.87
61908;BME280;47864;52.526;19.672;2023-04-20T09:38:46;101444.22;;;20.30;52.88
61908;BME280;47864;52.526;19.672;2023-04-20T09:40:48;101431.13;;;20.27;53.83
61908;BME280;47864;52.526;19.672;2023-04-20T09:42:50;101429.00;;;20.22;51.95
61908;BME280;47864;52.526;19.672;2023-04-20T09:44:53;101410.94;;;20.37;51.93
61908;BME280;47864;52.526;19.672;2023-04-20T09:46:55;101416.50;;;20.14;50.93
61908;BME280;47864;52.526;19.672;2023-04-20T09:48:58;101411.63;;;20.25;51.11
61908;BME280;47864;52.526;19.672;2023-04-20T09:51:01;101428.81;;;20.24;53.30
61908;BME280;47864;52.526;19.672;2023-04-20T09:53:03;101422.59;;;20.23;52.27
61908;BME280;47864;52.526;19.672;2023-04-20T09:55:06;101421.50;;;19.96;54.45
61908;BME280;47864;52.526;19.672;2023-04-20T09:57:08;101423.94;;;20.12;52.56
61908;BME280;47864;52.526;19.672;2023-04-20T09:59:10;101408.94;;;20.03;52.00
61908;BME280;47864;52.526;19.672;2023-04-20T10:01:12;101413.78;;;19.51;52.89
61908;BME280;47864;52.526;19.672;2023-04-20T10:03:19;101423.72;;;19.71;52.70
61908;BME280;47864;52.526;19.672;2023-04-20T10:05:32;101419.66;;;19.75;55.38
61908;BME280;47864;52.526;19.672;2023-04-20T10:07:33;101403.75;;;19.81;57.21
61908;BME280;47864;52.526;19.672;2023-04-20T10:09:35;101417.53;;;20.13;56.27
61908;BME280;47864;52.526;19.672;2023-04-20T10:11:39;101399.53;;;19.93;52.98
61908;BME280;47864;52.526;19.672;2023-04-20T10:13:54;101421.16;;;20.27;54.03
61908;BME280;47864;52.526;19.672;2023-04-20T10:15:56;101413.44;;;19.96;53.11
61908;BME280;47864;52.526;19.672;2023-04-20T10:17:57;101406.63;;;20.22;52.54
61908;BME280;47864;52.526;19.672;2023-04-20T10:19:59;101416.00;;;19.83;54.65
61908;BME280;47864;52.526;19.672;2023-04-20T10:22:01;101413.06;;;19.99;54.81
61908;BME280;47864;52.526;19.672;2023-04-20T10:24:03;101404.38;;;20.04;52.72
61908;BME280;47864;52.526;19.672;2023-04-20T10:26:04;101416.84;;;19.84;54.07